KLFI/LFI METAR and TAF weather

Enter ICAO airport designator
Station Type Date Time Source
KLFI METAR 2024/07/15 19:55 UTC NOAA

KLFI 151955Z 23009KT 10SM CLR 36/21 A2991 RMK AO2A SLP135 T03550206 $


Station Type Date Time Source
KLFI Decoded METAR 2024/07/15 19:55 UTC NOAA

Langley Air Force Base, VA, United States (KLFI) 37-05N 076-21W 6M
Jul 15, 2024 - 03:55 PM EDT / 2024.07.15 1955 UTC
Wind: from the SW (230 degrees) at 10 MPH (9 KT):0
Visibility: 10 mile(s):0
Sky conditions: clear
Temperature: 95.9 F (35.5 C)
Heat index: 101.3 F (38.5 C):1
Dew Point: 69.1 F (20.6 C)
Relative Humidity: 41%
Pressure (altimeter): 29.91 in. Hg (1012 hPa)
ob: KLFI 151955Z 23009KT 10SM CLR 36/21 A2991 RMK AO2A SLP135 T03550206
cycle: 20

Station Type Date Time Source
KLFI TAF 2024/07/15 17:06 UTC NOAA